Terminal Aerodrome Forecast
Issued by NWS

Home | Current Version | Previous Version | Text Only | Print | Product List | Glossary On
Versions: 1 2 3 4 5 6 7 8 9 10 11 12 13 14 15 16 17 18 19 20 21 22 23 24 25 26 27 28 29 30 31 32 33 34 35 36 37 38 39 40 41 42 43 44 45 46 47 48 49 50
000
FTUS45 KBOU 270211 AAA
TAFAPA
TAF AMD
KAPA 270211Z 2702/2724 32010KT 1 1/2SM -SN BR BKN025 OVC035
      TEMPO 2702/2704 1SM -SN BR BKN016 OVC020
     FM270400 34009KT 2SM -SN BR BKN017 OVC030
      TEMPO 2704/2707 1 1/2SM -SN SCT008 BKN015
     FM270700 13012KT P6SM VCSH SCT015 OVC025
     FM271100 17008KT P6SM BKN040 OVC070
     FM271800 15010KT P6SM SCT030 OVC045=

USA.gov is the U.S. government's official web portal to all federal, state and local government web resources and services.